Time;durP1;ratioP1;P1;durP2;ratioP2;P2;SDS_P1;SDS_P2;PMS_P1;PMS_P2;Temp;Humidity;BMP_temperature;BMP_pressure;BME280_temperature;BME280_humidity;BME280_pressure;Samples;Min_cycle;Max_cycle;Signal;HPM_P1;HPM_P2
2021/07/01 00:00:12;;;;;;;2.97;0.80;;;;;;;;;;5068758;28;20469;-50
2021/07/01 00:02:51;;;;;;;0.50;0.50;;;;;;;;;;5068385;28;20900;-52
2021/07/01 00:05:29;;;;;;;0.75;0.55;;;;;;;;;;5067882;28;20431;-49
2021/07/01 00:08:07;;;;;;;0.63;0.52;;;;;;;;;;5052621;28;20433;-53
2021/07/01 00:10:45;;;;;;;0.88;0.60;;;;;;;;;;5065707;28;20442;-48
2021/07/01 00:13:23;;;;;;;0.55;0.50;;;;;;;;;;5027529;28;20429;-49
2021/07/01 00:16:01;;;;;;;0.82;0.60;;;;;;;;;;5108581;27;20901;-49
2021/07/01 00:18:40;;;;;;;0.60;0.45;;;;;;;;;;5106335;27;20424;-48
2021/07/01 00:21:18;;;;;;;2.55;0.85;;;;;;;;;;5067985;28;20496;-48
2021/07/01 00:23:56;;;;;;;0.77;0.63;;;;;;;;;;5049320;28;20425;-48
2021/07/01 00:26:34;;;;;;;1.25;0.60;;;;;;;;;;5068650;28;20970;-52
2021/07/01 00:29:13;;;;;;;0.60;0.60;;;;;;;;;;5127357;27;20435;-53
2021/07/01 00:31:51;;;;;;;1.08;0.60;;;;;;;;;;5055662;28;20906;-53
2021/07/01 00:34:29;;;;;;;0.50;0.50;;;;;;;;;;5067888;28;20427;-52
2021/07/01 00:37:07;;;;;;;1.27;0.70;;;;;;;;;;5067312;28;20423;-56
2021/07/01 00:39:45;;;;;;;3.55;0.85;;;;;;;;;;5065942;28;20432;-50
2021/07/01 00:42:23;;;;;;;3.05;0.68;;;;;;;;;;5067031;28;20411;-50
2021/07/01 00:45:02;;;;;;;0.70;0.63;;;;;;;;;;5069017;28;20781;-50
2021/07/01 00:47:40;;;;;;;4.95;0.70;;;;;;;;;;5066848;28;20970;-53
2021/07/01 00:50:18;;;;;;;0.73;0.60;;;;;;;;;;5067179;28;20419;-50
2021/07/01 00:52:56;;;;;;;0.70;0.65;;;;;;;;;;5061137;28;20431;-51
2021/07/01 00:55:36;;;;;;;1.00;0.70;;;;;;;;;;5069247;28;20923;-49
2021/07/01 00:58:13;;;;;;;0.98;0.60;;;;;;;;;;5066403;28;20485;-50
2021/07/01 01:01:04;;;;;;;0.82;0.52;;;;;;;;;;5054258;28;20429;-50
2021/07/01 01:03:42;;;;;;;0.73;0.70;;;;;;;;;;5061067;28;20432;-51
2021/07/01 01:06:20;;;;;;;2.35;0.70;;;;;;;;;;5068552;28;20400;-48
2021/07/01 01:09:01;;;;;;;1.48;0.73;;;;;;;;;;5044689;28;20437;-54
2021/07/01 01:11:38;;;;;;;2.65;0.70;;;;;;;;;;5068795;28;20420;-53
2021/07/01 01:14:23;;;;;;;1.85;0.90;;;;;;;;;;5067015;28;20428;-50
2021/07/01 01:17:15;;;;;;;1.00;0.80;;;;;;;;;;5065742;28;20932;-48
2021/07/01 01:19:53;;;;;;;1.67;1.00;;;;;;;;;;5068631;28;20414;-53
2021/07/01 01:22:32;;;;;;;2.47;1.08;;;;;;;;;;5061429;28;20423;-49
2021/07/01 01:25:11;;;;;;;2.83;1.10;;;;;;;;;;5068817;28;20505;-52
2021/07/01 01:27:51;;;;;;;1.00;0.90;;;;;;;;;;5066800;28;20423;-52
2021/07/01 01:30:28;;;;;;;1.10;0.90;;;;;;;;;;5096293;27;20416;-55
2021/07/01 01:33:07;;;;;;;2.55;0.93;;;;;;;;;;5067183;28;20419;-50
2021/07/01 01:35:46;;;;;;;2.33;0.95;;;;;;;;;;5068851;28;20414;-52
2021/07/01 01:38:24;;;;;;;1.85;1.10;;;;;;;;;;5064923;28;20463;-50
2021/07/01 01:41:04;;;;;;;2.20;0.90;;;;;;;;;;5068719;28;20414;-48
2021/07/01 01:43:42;;;;;;;1.90;1.02;;;;;;;;;;5067997;28;20415;-51
2021/07/01 01:46:20;;;;;;;1.58;0.90;;;;;;;;;;5065725;28;20500;-50
2021/07/01 01:48:58;;;;;;;1.27;1.00;;;;;;;;;;5067748;28;20919;-49
2021/07/01 01:51:37;;;;;;;0.90;0.82;;;;;;;;;;5066541;28;20477;-53
2021/07/01 01:54:15;;;;;;;1.58;0.98;;;;;;;;;;5067989;28;20415;-55
2021/07/01 01:56:53;;;;;;;1.83;0.90;;;;;;;;;;5067357;28;20442;-51
2021/07/01 02:00:10;;;;;;;1.13;1.00;;;;;;;;;;5066925;28;20432;-53
2021/07/01 02:03:05;;;;;;;2.17;1.00;;;;;;;;;;5067320;28;20424;-52
2021/07/01 02:06:09;;;;;;;1.40;0.90;;;;;;;;;;5067690;28;20505;-51
2021/07/01 02:08:47;;;;;;;1.00;0.85;;;;;;;;;;5068006;28;20422;-50
2021/07/01 02:11:26;;;;;;;1.77;1.00;;;;;;;;;;5056788;28;20912;-50
2021/07/01 02:14:04;;;;;;;1.23;0.88;;;;;;;;;;5052996;28;20450;-51
2021/07/01 02:17:06;;;;;;;1.35;0.80;;;;;;;;;;5060030;28;20628;-53
2021/07/01 02:19:44;;;;;;;2.30;0.90;;;;;;;;;;5098584;27;20860;-52
2021/07/01 02:22:22;;;;;;;0.70;0.70;;;;;;;;;;5067375;28;20427;-50
2021/07/01 02:25:01;;;;;;;1.80;0.90;;;;;;;;;;5068753;28;20457;-53
2021/07/01 02:27:40;;;;;;;3.55;0.85;;;;;;;;;;5126705;27;20426;-52
2021/07/01 02:30:19;;;;;;;1.45;0.80;;;;;;;;;;5067362;28;20438;-52
2021/07/01 02:32:57;;;;;;;0.93;0.77;;;;;;;;;;5068179;28;20923;-51
2021/07/01 02:35:43;;;;;;;0.68;0.68;;;;;;;;;;5064041;28;20814;-50
2021/07/01 02:38:39;;;;;;;2.50;0.80;;;;;;;;;;5068705;28;20404;-52
2021/07/01 02:41:23;;;;;;;1.48;0.80;;;;;;;;;;5066510;28;20431;-52
2021/07/01 02:44:03;;;;;;;2.65;0.90;;;;;;;;;;5129183;27;20407;-51
2021/07/01 02:46:59;;;;;;;1.27;0.80;;;;;;;;;;5052301;28;20420;-50
2021/07/01 02:49:42;;;;;;;1.20;0.73;;;;;;;;;;5076069;28;20486;-51
2021/07/01 02:52:26;;;;;;;1.45;0.80;;;;;;;;;;5059500;28;20424;-49
2021/07/01 02:55:06;;;;;;;1.55;1.00;;;;;;;;;;5065813;28;20439;-49
2021/07/01 02:57:44;;;;;;;1.00;0.85;;;;;;;;;;5066488;28;20920;-50
2021/07/01 03:00:23;;;;;;;1.40;0.82;;;;;;;;;;5067797;28;20911;-50
2021/07/01 03:03:06;;;;;;;1.85;1.00;;;;;;;;;;5066927;28;20415;-53
2021/07/01 03:05:52;;;;;;;1.88;1.05;;;;;;;;;;5062314;28;20424;-53
2021/07/01 03:08:30;;;;;;;1.42;1.10;;;;;;;;;;5129762;27;20408;-49
2021/07/01 03:11:08;;;;;;;1.58;1.10;;;;;;;;;;5058302;28;20425;-51
2021/07/01 03:13:47;;;;;;;1.17;1.05;;;;;;;;;;5068317;28;20407;-50
2021/07/01 03:16:27;;;;;;;2.20;1.27;;;;;;;;;;5067332;28;20970;-51
2021/07/01 03:19:04;;;;;;;2.95;1.42;;;;;;;;;;5061319;28;20941;-49
2021/07/01 03:22:11;;;;;;;2.55;1.25;;;;;;;;;;5066293;28;20430;-51
2021/07/01 03:24:50;;;;;;;1.67;1.30;;;;;;;;;;5068126;28;20422;-50
2021/07/01 03:27:28;;;;;;;1.88;1.20;;;;;;;;;;5130388;27;20460;-51
2021/07/01 03:30:06;;;;;;;3.20;1.30;;;;;;;;;;5066782;28;20427;-51
2021/07/01 03:32:44;;;;;;;3.13;1.30;;;;;;;;;;5061850;28;20446;-53
2021/07/01 03:35:23;;;;;;;1.88;1.33;;;;;;;;;;5064842;28;20439;-51
2021/07/01 03:38:39;;;;;;;2.13;1.30;;;;;;;;;;5129790;27;20415;-52
2021/07/01 03:41:28;;;;;;;2.67;1.60;;;;;;;;;;5112083;27;20148;-50
2021/07/01 03:44:08;;;;;;;1.40;1.30;;;;;;;;;;5067267;28;20412;-50
2021/07/01 03:46:46;;;;;;;2.20;1.60;;;;;;;;;;5073731;27;20422;-51
2021/07/01 03:49:25;;;;;;;1.80;1.40;;;;;;;;;;5060942;28;20438;-50
2021/07/01 03:52:20;;;;;;;1.88;1.40;;;;;;;;;;5052696;28;20434;-52
2021/07/01 03:55:05;;;;;;;2.38;1.50;;;;;;;;;;5066084;28;20927;-52
2021/07/01 03:57:43;;;;;;;1.92;1.30;;;;;;;;;;5067129;28;20461;-55
2021/07/01 04:00:22;;;;;;;3.08;1.20;;;;;;;;;;5065105;28;20433;-52
2021/07/01 04:03:06;;;;;;;2.65;1.50;;;;;;;;;;5051624;28;20432;-51
2021/07/01 04:06:03;;;;;;;2.50;1.30;;;;;;;;;;5060033;28;20166;-54
2021/07/01 04:08:42;;;;;;;2.17;1.50;;;;;;;;;;5068666;28;20404;-50
2021/07/01 04:11:20;;;;;;;2.13;1.70;;;;;;;;;;5048553;28;20433;-54
2021/07/01 04:13:58;;;;;;;2.80;1.65;;;;;;;;;;5067897;28;20473;-52
2021/07/01 04:16:56;;;;;;;2.05;1.63;;;;;;;;;;5087040;27;20162;-53
2021/07/01 04:19:51;;;;;;;3.08;1.83;;;;;;;;;;5053937;28;20539;-53
2021/07/01 04:22:47;;;;;;;3.70;1.75;;;;;;;;;;5064949;28;20833;-55
2021/07/01 04:25:54;;;;;;;2.63;1.75;;;;;;;;;;5062329;28;20416;-54
2021/07/01 04:28:34;;;;;;;2.88;1.85;;;;;;;;;;5059787;28;20427;-53
2021/07/01 04:31:14;;;;;;;3.28;2.30;;;;;;;;;;5066840;28;20419;-52
2021/07/01 04:33:58;;;;;;;3.35;2.10;;;;;;;;;;5054893;28;20425;-50
2021/07/01 04:36:36;;;;;;;4.32;2.95;;;;;;;;;;5059615;28;20431;-56
2021/07/01 04:39:19;;;;;;;3.08;2.05;;;;;;;;;;5067896;28;20427;-53
2021/07/01 04:42:08;;;;;;;3.50;2.38;;;;;;;;;;5119161;27;20140;-54
2021/07/01 04:44:47;;;;;;;3.10;2.25;;;;;;;;;;5068020;28;20461;-55
2021/07/01 04:47:27;;;;;;;3.10;2.17;;;;;;;;;;5067426;28;20802;-53
2021/07/01 04:50:12;;;;;;;4.45;2.40;;;;;;;;;;5064563;28;20436;-50
2021/07/01 04:52:53;;;;;;;3.15;2.53;;;;;;;;;;5066611;28;20431;-52
2021/07/01 04:55:49;;;;;;;4.03;2.70;;;;;;;;;;5067484;28;20450;-56
2021/07/01 04:58:44;;;;;;;3.35;2.28;;;;;;;;;;5068707;28;20860;-50
2021/07/01 05:01:55;;;;;;;3.13;1.98;;;;;;;;;;5061524;28;20486;-50
2021/07/01 05:04:52;;;;;;;3.90;2.70;;;;;;;;;;5065983;28;20146;-50
2021/07/01 05:07:30;;;;;;;3.33;2.55;;;;;;;;;;5046690;28;20432;-51
2021/07/01 05:10:09;;;;;;;4.72;2.03;;;;;;;;;;5127808;27;20403;-50
2021/07/01 05:13:12;;;;;;;5.10;3.75;;;;;;;;;;5067935;28;20431;-52
2021/07/01 05:15:50;;;;;;;4.57;2.97;;;;;;;;;;5067739;28;20438;-51
2021/07/01 05:18:29;;;;;;;3.22;2.10;;;;;;;;;;5065874;28;20435;-53
2021/07/01 05:21:24;;;;;;;4.65;2.45;;;;;;;;;;5086564;27;20828;-50
2021/07/01 05:24:20;;;;;;;3.95;2.45;;;;;;;;;;5067106;28;20457;-47
2021/07/01 05:27:16;;;;;;;4.05;2.45;;;;;;;;;;5062069;28;20438;-53
2021/07/01 05:30:12;;;;;;;2.95;2.15;;;;;;;;;;5054338;28;20421;-48
2021/07/01 05:33:22;;;;;;;3.17;2.00;;;;;;;;;;5080687;27;20419;-50
2021/07/01 05:36:04;;;;;;;3.83;2.63;;;;;;;;;;5068771;28;20422;-53
2021/07/01 05:38:42;;;;;;;2.83;2.00;;;;;;;;;;5065451;28;20435;-52
2021/07/01 05:41:23;;;;;;;4.20;3.40;;;;;;;;;;5067095;28;20435;-50
2021/07/01 05:44:03;;;;;;;3.40;2.20;;;;;;;;;;5108988;27;20424;-52
2021/07/01 05:47:00;;;;;;;4.18;2.60;;;;;;;;;;5064678;28;20469;-48
2021/07/01 05:49:39;;;;;;;4.00;2.40;;;;;;;;;;5054013;28;20417;-50
2021/07/01 05:52:22;;;;;;;3.80;2.58;;;;;;;;;;5071864;28;20425;-48
2021/07/01 05:55:00;;;;;;;3.72;2.60;;;;;;;;;;5065439;28;20425;-53
2021/07/01 05:57:38;;;;;;;4.25;2.53;;;;;;;;;;5067707;28;20900;-49
2021/07/01 06:00:17;;;;;;;3.78;2.33;;;;;;;;;;5066614;28;20430;-50
2021/07/01 06:02:56;;;;;;;3.97;2.25;;;;;;;;;;5067197;28;20428;-52
2021/07/01 06:05:35;;;;;;;3.63;2.05;;;;;;;;;;5068088;28;20504;-49
2021/07/01 06:08:49;;;;;;;3.65;2.58;;;;;;;;;;5058026;28;20430;-49
2021/07/01 06:11:28;;;;;;;3.20;2.08;;;;;;;;;;5067746;28;20485;-53
2021/07/01 06:14:06;;;;;;;4.13;2.35;;;;;;;;;;5067748;28;20430;-52
2021/07/01 06:16:44;;;;;;;3.97;2.50;;;;;;;;;;5048730;28;20429;-53
2021/07/01 06:19:22;;;;;;;4.63;2.67;;;;;;;;;;5064945;28;20420;-48
2021/07/01 06:22:00;;;;;;;3.25;2.28;;;;;;;;;;5065169;28;20427;-52
2021/07/01 06:24:38;;;;;;;4.07;2.53;;;;;;;;;;5068129;28;20908;-48
2021/07/01 06:27:21;;;;;;;4.45;2.50;;;;;;;;;;5068708;28;20469;-50
2021/07/01 06:30:03;;;;;;;3.28;2.38;;;;;;;;;;5087987;27;20430;-51
2021/07/01 06:32:47;;;;;;;3.33;2.33;;;;;;;;;;5040008;28;20516;-51
2021/07/01 06:35:25;;;;;;;3.28;2.33;;;;;;;;;;5049798;28;20420;-50
2021/07/01 06:38:09;;;;;;;3.55;2.65;;;;;;;;;;5055658;28;20424;-49
2021/07/01 06:41:07;;;;;;;3.47;2.42;;;;;;;;;;5066403;28;20505;-52
2021/07/01 06:44:06;;;;;;;4.85;2.80;;;;;;;;;;5068097;28;20229;-52
2021/07/01 06:47:02;;;;;;;3.88;2.60;;;;;;;;;;5066890;28;20428;-49
2021/07/01 06:49:58;;;;;;;4.30;2.58;;;;;;;;;;5048418;28;20417;-52
2021/07/01 06:52:55;;;;;;;5.75;3.17;;;;;;;;;;5064133;28;20838;-55
2021/07/01 06:55:53;;;;;;;4.38;2.90;;;;;;;;;;5067539;28;20816;-50
2021/07/01 06:58:42;;;;;;;3.97;2.88;;;;;;;;;;5128976;27;20147;-48
2021/07/01 07:01:21;;;;;;;3.67;2.67;;;;;;;;;;5065121;28;20446;-54
2021/07/01 07:04:18;;;;;;;4.15;2.75;;;;;;;;;;5067316;28;20161;-49
2021/07/01 07:06:57;;;;;;;5.22;3.83;;;;;;;;;;5059541;28;20432;-50
2021/07/01 07:09:37;;;;;;;3.33;2.65;;;;;;;;;;5066774;28;20781;-48
2021/07/01 07:12:14;;;;;;;4.03;2.70;;;;;;;;;;5067408;28;20970;-47
2021/07/01 07:14:52;;;;;;;3.17;2.25;;;;;;;;;;5086561;27;20456;-51
2021/07/01 07:17:32;;;;;;;4.13;2.85;;;;;;;;;;5071091;28;21236;-51
2021/07/01 07:20:13;;;;;;;3.78;2.40;;;;;;;;;;5060868;28;20424;-52
2021/07/01 07:22:53;;;;;;;3.38;2.20;;;;;;;;;;5056828;28;20474;-50
2021/07/01 07:25:37;;;;;;;3.15;2.38;;;;;;;;;;5067917;28;20916;-50
2021/07/01 07:28:18;;;;;;;3.22;2.10;;;;;;;;;;5069068;28;20434;-48
2021/07/01 07:30:56;;;;;;;6.97;2.30;;;;;;;;;;5064712;28;20427;-48
2021/07/01 07:33:34;;;;;;;4.40;2.00;;;;;;;;;;5048515;28;20437;-49
2021/07/01 07:36:12;;;;;;;4.57;2.08;;;;;;;;;;5067909;28;20424;-48
2021/07/01 07:38:51;;;;;;;4.13;2.13;;;;;;;;;;5048174;28;20426;-50
2021/07/01 07:41:28;;;;;;;2.28;1.73;;;;;;;;;;5063574;28;20416;-48
2021/07/01 07:44:07;;;;;;;2.20;1.70;;;;;;;;;;5065813;28;20423;-48
2021/07/01 07:46:45;;;;;;;2.40;1.90;;;;;;;;;;5069174;28;20411;-49
2021/07/01 07:49:23;;;;;;;3.70;1.92;;;;;;;;;;5061637;28;20806;-52
2021/07/01 07:52:05;;;;;;;3.65;2.00;;;;;;;;;;5064507;28;20436;-50
2021/07/01 07:54:47;;;;;;;2.45;1.55;;;;;;;;;;5079957;28;20827;-48
2021/07/01 07:57:28;;;;;;;3.05;1.77;;;;;;;;;;5076694;28;20423;-52
2021/07/01 08:00:06;;;;;;;2.60;1.70;;;;;;;;;;5069917;28;20427;-47
2021/07/01 08:02:59;;;;;;;2.22;1.55;;;;;;;;;;5066025;28;20424;-52
2021/07/01 08:05:38;;;;;;;2.25;1.52;;;;;;;;;;5129508;27;20155;-51
2021/07/01 08:08:17;;;;;;;1.88;1.33;;;;;;;;;;5064666;28;20439;-49
2021/07/01 08:10:55;;;;;;;2.38;1.38;;;;;;;;;;5047437;28;20428;-49
2021/07/01 08:13:33;;;;;;;1.75;1.35;;;;;;;;;;5064742;28;20852;-47
2021/07/01 08:16:13;;;;;;;1.70;1.20;;;;;;;;;;5119535;27;20412;-44
2021/07/01 08:18:50;;;;;;;1.77;1.27;;;;;;;;;;5049564;28;20429;-48
2021/07/01 08:21:29;;;;;;;2.60;1.25;;;;;;;;;;5064622;28;20493;-50
2021/07/01 08:24:10;;;;;;;3.58;1.40;;;;;;;;;;5067907;28;20497;-46
2021/07/01 08:26:50;;;;;;;1.65;1.20;;;;;;;;;;5067899;28;20423;-45
2021/07/01 08:29:28;;;;;;;2.10;1.38;;;;;;;;;;5049819;28;20432;-45
2021/07/01 08:32:06;;;;;;;2.00;1.45;;;;;;;;;;5050612;28;20443;-48
2021/07/01 08:34:45;;;;;;;2.00;1.50;;;;;;;;;;5063166;28;20431;-47
2021/07/01 08:37:23;;;;;;;5.55;1.67;;;;;;;;;;5059134;28;20435;-46
2021/07/01 08:40:03;;;;;;;2.47;1.40;;;;;;;;;;5053957;28;20487;-46
2021/07/01 08:42:41;;;;;;;3.85;1.60;;;;;;;;;;5056297;28;20420;-49
2021/07/01 08:45:19;;;;;;;2.42;1.50;;;;;;;;;;5067022;28;20484;-48
2021/07/01 08:48:00;;;;;;;2.00;1.40;;;;;;;;;;5067912;28;20423;-53
2021/07/01 08:50:39;;;;;;;2.58;1.48;;;;;;;;;;5062725;28;20900;-51
2021/07/01 08:53:23;;;;;;;3.08;1.73;;;;;;;;;;5053224;28;20806;-52
2021/07/01 08:56:02;;;;;;;2.92;2.00;;;;;;;;;;5067403;28;20816;-55
2021/07/01 08:58:46;;;;;;;4.05;1.60;;;;;;;;;;5068493;28;20959;-48
2021/07/01 09:01:26;;;;;;;4.90;1.90;;;;;;;;;;5062761;28;20467;-51
2021/07/01 09:04:07;;;;;;;3.28;2.28;;;;;;;;;;5067223;28;20934;-53
2021/07/01 09:06:48;;;;;;;3.67;2.00;;;;;;;;;;5062770;28;20439;-57
2021/07/01 09:09:31;;;;;;;4.80;1.95;;;;;;;;;;5049252;28;20440;-52
2021/07/01 09:12:10;;;;;;;4.00;1.88;;;;;;;;;;5063215;28;20810;-50
2021/07/01 09:14:50;;;;;;;4.57;2.05;;;;;;;;;;5065359;28;20450;-47
2021/07/01 09:17:29;;;;;;;4.30;1.90;;;;;;;;;;5064946;28;20423;-50
2021/07/01 09:20:08;;;;;;;3.50;2.20;;;;;;;;;;5060738;28;20511;-52
2021/07/01 09:22:46;;;;;;;2.88;2.20;;;;;;;;;;5046729;28;20914;-51
2021/07/01 09:25:24;;;;;;;3.38;2.50;;;;;;;;;;5039455;28;20438;-53
2021/07/01 09:28:02;;;;;;;2.75;1.90;;;;;;;;;;5053447;28;20428;-52
2021/07/01 09:30:41;;;;;;;4.60;2.47;;;;;;;;;;5054441;28;20428;-61
2021/07/01 09:33:20;;;;;;;4.13;2.63;;;;;;;;;;5069670;28;20444;-56
2021/07/01 09:35:58;;;;;;;3.78;2.63;;;;;;;;;;5069504;28;20828;-55
2021/07/01 09:38:37;;;;;;;4.13;2.47;;;;;;;;;;5103250;27;20446;-53
2021/07/01 09:41:16;;;;;;;3.72;2.78;;;;;;;;;;5050763;28;20436;-46
2021/07/01 09:43:55;;;;;;;3.30;2.40;;;;;;;;;;5070534;28;20437;-49
2021/07/01 09:46:34;;;;;;;3.63;3.03;;;;;;;;;;5105429;27;20427;-52
2021/07/01 09:49:15;;;;;;;4.32;3.10;;;;;;;;;;5063732;28;20482;-51
2021/07/01 09:51:56;;;;;;;4.13;2.42;;;;;;;;;;5063031;28;20445;-53
2021/07/01 09:54:35;;;;;;;4.00;2.40;;;;;;;;;;5074288;28;20431;-56
2021/07/01 09:57:18;;;;;;;3.33;2.45;;;;;;;;;;5047396;28;20835;-52
2021/07/01 10:00:08;;;;;;;2.92;2.33;;;;;;;;;;5065310;28;20423;-53
2021/07/01 10:03:04;;;;;;;4.30;2.53;;;;;;;;;;5069294;28;20476;-50
2021/07/01 10:05:42;;;;;;;2.85;2.22;;;;;;;;;;5118568;27;20135;-54
2021/07/01 10:08:36;;;;;;;3.53;2.58;;;;;;;;;;5125606;27;20144;-52
2021/07/01 10:11:14;;;;;;;2.95;2.22;;;;;;;;;;5068502;28;20483;-51
2021/07/01 10:13:51;;;;;;;4.22;2.30;;;;;;;;;;5066533;28;20490;-54
2021/07/01 10:16:31;;;;;;;3.35;2.22;;;;;;;;;;5075850;28;20160;-51
2021/07/01 10:19:09;;;;;;;4.00;2.70;;;;;;;;;;5079832;27;20831;-53
2021/07/01 10:22:01;;;;;;;2.17;1.80;;;;;;;;;;5041703;28;21150;-53
2021/07/01 10:24:48;;;;;;;2.83;1.92;;;;;;;;;;5112118;27;20409;-55
2021/07/01 10:27:33;;;;;;;4.68;2.30;;;;;;;;;;5096473;27;20428;-52
2021/07/01 10:30:23;;;;;;;3.03;2.20;;;;;;;;;;5105106;27;20867;-53
2021/07/01 10:33:01;;;;;;;4.30;2.42;;;;;;;;;;5064361;28;20485;-51
2021/07/01 10:35:39;;;;;;;2.88;2.00;;;;;;;;;;5086832;27;20488;-52
2021/07/01 10:38:18;;;;;;;6.18;5.45;;;;;;;;;;5063224;28;20448;-49
2021/07/01 10:40:57;;;;;;;3.38;2.00;;;;;;;;;;5068866;28;20504;-54
2021/07/01 10:43:40;;;;;;;2.40;1.40;;;;;;;;;;5062118;28;20914;-49
2021/07/01 10:46:19;;;;;;;2.75;1.65;;;;;;;;;;5067592;28;20923;-49
2021/07/01 10:48:57;;;;;;;2.20;1.75;;;;;;;;;;5033092;28;20437;-52
2021/07/01 10:51:56;;;;;;;3.13;2.00;;;;;;;;;;5103083;27;20157;-49
2021/07/01 10:54:34;;;;;;;2.90;2.30;;;;;;;;;;5067970;28;20432;-50
2021/07/01 10:57:12;;;;;;;2.17;1.55;;;;;;;;;;5067057;28;20434;-51
2021/07/01 10:59:52;;;;;;;2.58;1.60;;;;;;;;;;5061211;28;20423;-54
2021/07/01 11:02:32;;;;;;;2.40;1.70;;;;;;;;;;5108611;27;20458;-50
2021/07/01 11:05:12;;;;;;;3.20;2.15;;;;;;;;;;5042440;28;20946;-48
2021/07/01 11:07:50;;;;;;;3.05;1.88;;;;;;;;;;5049887;28;20421;-49
2021/07/01 11:10:32;;;;;;;4.15;2.15;;;;;;;;;;5045204;28;20867;-47
2021/07/01 11:13:11;;;;;;;4.20;2.13;;;;;;;;;;5046932;28;20425;-49
2021/07/01 11:16:03;;;;;;;3.92;2.30;;;;;;;;;;5063903;28;20453;-48
2021/07/01 11:18:43;;;;;;;3.13;2.20;;;;;;;;;;5055013;28;20424;-46
2021/07/01 11:21:22;;;;;;;3.60;2.28;;;;;;;;;;5127506;27;20488;-50
2021/07/01 11:24:10;;;;;;;3.50;2.25;;;;;;;;;;5067653;28;20407;-49
2021/07/01 11:26:50;;;;;;;3.58;2.20;;;;;;;;;;5095772;27;20140;-49
2021/07/01 11:29:35;;;;;;;3.35;2.25;;;;;;;;;;5065528;28;20475;-48
2021/07/01 11:32:18;;;;;;;3.65;2.22;;;;;;;;;;5054699;28;20432;-47
2021/07/01 11:34:57;;;;;;;4.13;2.88;;;;;;;;;;5060359;28;20443;-47
2021/07/01 11:37:39;;;;;;;6.35;5.63;;;;;;;;;;5063415;28;20496;-51
2021/07/01 11:40:20;;;;;;;4.10;2.60;;;;;;;;;;5032664;28;20805;-50
2021/07/01 11:42:58;;;;;;;3.13;2.33;;;;;;;;;;5054928;28;20428;-48
2021/07/01 11:45:36;;;;;;;3.28;2.40;;;;;;;;;;5073636;27;20431;-55
2021/07/01 11:48:14;;;;;;;3.00;2.20;;;;;;;;;;5087921;27;20425;-49
2021/07/01 11:50:53;;;;;;;8.15;2.60;;;;;;;;;;5055808;28;20432;-53
2021/07/01 11:53:30;;;;;;;4.70;2.30;;;;;;;;;;5044342;28;20514;-52
2021/07/01 11:56:09;;;;;;;3.25;2.25;;;;;;;;;;5048014;28;20446;-50
2021/07/01 11:58:47;;;;;;;2.90;2.00;;;;;;;;;;5064314;28;20424;-47
2021/07/01 12:01:26;;;;;;;4.03;2.03;;;;;;;;;;5057603;28;20437;-50
2021/07/01 12:04:03;;;;;;;3.78;2.30;;;;;;;;;;5128522;27;20434;-50
2021/07/01 12:06:45;;;;;;;2.92;2.17;;;;;;;;;;5074048;27;20427;-48
2021/07/01 12:09:23;;;;;;;3.13;2.30;;;;;;;;;;5084411;27;20415;-47
2021/07/01 12:12:01;;;;;;;3.05;2.28;;;;;;;;;;5043058;28;20443;-48
2021/07/01 12:14:43;;;;;;;7.28;6.45;;;;;;;;;;5074265;22;20481;-50
2021/07/01 12:17:39;;;;;;;4.30;2.83;;;;;;;;;;5062100;28;20432;-52
2021/07/01 12:20:37;;;;;;;4.25;3.05;;;;;;;;;;5056444;27;20482;-50
2021/07/01 12:23:21;;;;;;;4.50;2.80;;;;;;;;;;5093886;27;20164;-49
2021/07/01 12:26:01;;;;;;;3.28;2.42;;;;;;;;;;5060444;28;20427;-52
2021/07/01 12:28:40;;;;;;;3.70;2.50;;;;;;;;;;5107619;27;20416;-45
2021/07/01 12:31:21;;;;;;;3.75;2.92;;;;;;;;;;5107789;27;20421;-49
2021/07/01 12:34:00;;;;;;;5.25;3.40;;;;;;;;;;5055040;28;20435;-50
2021/07/01 12:36:45;;;;;;;4.43;3.42;;;;;;;;;;5063219;28;20435;-52
2021/07/01 12:39:24;;;;;;;7.70;4.32;;;;;;;;;;5053372;28;20967;-45
2021/07/01 12:42:05;;;;;;;4.75;3.88;;;;;;;;;;5059019;28;20469;-52
2021/07/01 12:44:44;;;;;;;4.82;3.78;;;;;;;;;;5127609;27;20422;-50
2021/07/01 12:47:29;;;;;;;6.75;4.93;;;;;;;;;;5056914;28;20425;-49
2021/07/01 12:50:09;;;;;;;5.18;3.58;;;;;;;;;;5068218;28;20400;-48
2021/07/01 12:52:48;;;;;;;5.50;3.58;;;;;;;;;;5060756;28;20427;-48
2021/07/01 12:55:26;;;;;;;3.75;2.70;;;;;;;;;;5064733;28;20443;-50
2021/07/01 12:58:04;;;;;;;5.60;3.38;;;;;;;;;;5067587;28;20907;-48
2021/07/01 13:00:42;;;;;;;7.78;4.70;;;;;;;;;;5060171;28;20457;-45
2021/07/01 13:03:27;;;;;;;7.05;5.22;;;;;;;;;;5061846;28;20439;-52
2021/07/01 13:06:05;;;;;;;6.07;5.43;;;;;;;;;;5062511;28;20435;-48
2021/07/01 13:08:43;;;;;;;5.10;3.40;;;;;;;;;;5044136;28;20444;-49
2021/07/01 13:11:21;;;;;;;5.15;2.80;;;;;;;;;;5061788;28;20435;-47
2021/07/01 13:13:59;;;;;;;3.83;2.65;;;;;;;;;;5068485;28;20430;-50
2021/07/01 13:17:03;;;;;;;4.18;2.80;;;;;;;;;;5103216;27;20199;-49
2021/07/01 13:19:43;;;;;;;4.63;2.90;;;;;;;;;;5062613;28;20439;-47
2021/07/01 13:22:21;;;;;;;4.35;2.80;;;;;;;;;;5119733;27;20425;-48
2021/07/01 13:25:06;;;;;;;5.38;3.17;;;;;;;;;;5066459;28;20534;-49
2021/07/01 13:27:50;;;;;;;4.32;3.38;;;;;;;;;;5061554;28;20870;-49
2021/07/01 13:30:40;;;;;;;4.18;3.20;;;;;;;;;;5049719;28;20456;-48
2021/07/01 13:33:19;;;;;;;6.20;3.72;;;;;;;;;;5068000;28;20412;-48
2021/07/01 13:35:57;;;;;;;6.25;3.40;;;;;;;;;;5057732;28;20820;-48
2021/07/01 13:38:37;;;;;;;6.90;3.40;;;;;;;;;;5125163;27;20419;-49
2021/07/01 13:41:15;;;;;;;5.90;3.60;;;;;;;;;;5068059;28;20407;-50
2021/07/01 13:44:09;;;;;;;4.30;2.90;;;;;;;;;;5065765;28;20531;-48
2021/07/01 13:46:46;;;;;;;2.88;2.20;;;;;;;;;;5053751;28;20467;-51
2021/07/01 13:49:24;;;;;;;3.63;2.53;;;;;;;;;;5059029;28;20432;-48
2021/07/01 13:52:03;;;;;;;4.68;2.70;;;;;;;;;;5657751;22;21592;-49
2021/07/01 13:54:43;;;;;;;4.07;2.73;;;;;;;;;;5089521;27;1306290;-49
2021/07/01 13:57:28;;;;;;;3.88;2.72;;;;;;;;;;5122629;27;20136;-48
2021/07/01 14:00:05;;;;;;;3.70;2.65;;;;;;;;;;5061713;28;20439;-49
2021/07/01 14:02:45;;;;;;;3.92;3.22;;;;;;;;;;5053218;28;20416;-51
2021/07/01 14:05:24;;;;;;;4.10;2.30;;;;;;;;;;5068309;28;20927;-51
2021/07/01 14:08:02;;;;;;;4.60;2.67;;;;;;;;;;5060299;28;20930;-49
2021/07/01 14:10:40;;;;;;;3.13;2.38;;;;;;;;;;5068753;28;20423;-48
2021/07/01 14:13:18;;;;;;;5.07;2.60;;;;;;;;;;5056586;28;20932;-49
2021/07/01 14:15:56;;;;;;;3.17;2.50;;;;;;;;;;5074586;28;20441;-50
2021/07/01 14:18:36;;;;;;;4.95;2.83;;;;;;;;;;5062942;28;20440;-47
2021/07/01 14:21:14;;;;;;;3.17;2.20;;;;;;;;;;5109110;27;20405;-48
2021/07/01 14:24:06;;;;;;;4.80;2.63;;;;;;;;;;5050598;28;20425;-47
2021/07/01 14:26:48;;;;;;;3.35;2.63;;;;;;;;;;5109418;27;20431;-50
2021/07/01 14:29:26;;;;;;;4.35;2.90;;;;;;;;;;5051477;28;20928;-48
2021/07/01 14:32:03;;;;;;;4.07;3.00;;;;;;;;;;5040068;28;20447;-49
2021/07/01 14:34:44;;;;;;;5.55;3.30;;;;;;;;;;5060408;28;20427;-45
2021/07/01 14:37:22;;;;;;;4.25;3.00;;;;;;;;;;5051391;28;20816;-49
2021/07/01 14:40:02;;;;;;;6.32;3.05;;;;;;;;;;5047193;28;20444;-46
2021/07/01 14:43:03;;;;;;;4.85;3.35;;;;;;;;;;5047603;28;20436;-49
2021/07/01 14:45:41;;;;;;;4.72;3.03;;;;;;;;;;5058451;28;20834;-45
2021/07/01 14:48:28;;;;;;;5.28;2.85;;;;;;;;;;5044949;28;20442;-47
2021/07/01 14:51:19;;;;;;;3.17;2.22;;;;;;;;;;5068871;28;20894;-45
2021/07/01 14:54:13;;;;;;;4.00;2.70;;;;;;;;;;5062134;28;20522;-52
2021/07/01 14:56:55;;;;;;;3.20;2.22;;;;;;;;;;5071108;28;20416;-51
2021/07/01 14:59:47;;;;;;;4.97;2.53;;;;;;;;;;5068561;28;20423;-48
2021/07/01 15:02:28;;;;;;;6.53;4.80;;;;;;;;;;5048131;28;20444;-50
2021/07/01 15:05:14;;;;;;;6.43;3.40;;;;;;;;;;5068714;28;20422;-46
2021/07/01 15:07:58;;;;;;;6.72;3.40;;;;;;;;;;5053991;28;20444;-46
2021/07/01 15:10:37;;;;;;;5.10;4.00;;;;;;;;;;5064560;28;20891;-49
2021/07/01 15:13:20;;;;;;;5.03;3.60;;;;;;;;;;5048378;28;20909;-51
2021/07/01 15:15:58;;;;;;;6.05;3.30;;;;;;;;;;5040773;28;20430;-44
2021/07/01 15:18:37;;;;;;;5.00;3.33;;;;;;;;;;5074451;27;20960;-52
2021/07/01 15:21:15;;;;;;;4.93;3.50;;;;;;;;;;5065945;28;20423;-47
2021/07/01 15:23:56;;;;;;;5.47;3.78;;;;;;;;;;5056417;28;20446;-47
2021/07/01 15:26:34;;;;;;;5.45;4.10;;;;;;;;;;5050586;28;20436;-47
2021/07/01 15:29:12;;;;;;;5.47;4.28;;;;;;;;;;5060983;28;20449;-47
2021/07/01 15:31:50;;;;;;;5.53;4.75;;;;;;;;;;5039594;28;20430;-47
2021/07/01 15:34:29;;;;;;;7.60;5.40;;;;;;;;;;5067139;28;20407;-47
2021/07/01 15:37:07;;;;;;;6.07;4.82;;;;;;;;;;5067630;28;20430;-47
2021/07/01 15:39:45;;;;;;;6.85;5.10;;;;;;;;;;5066553;28;20439;-49
2021/07/01 15:42:24;;;;;;;6.72;5.07;;;;;;;;;;5070676;28;20428;-50
2021/07/01 15:45:01;;;;;;;6.38;5.03;;;;;;;;;;5065230;28;20423;-46
2021/07/01 15:47:40;;;;;;;6.68;5.40;;;;;;;;;;5068101;28;20427;-49
2021/07/01 15:50:18;;;;;;;8.55;6.15;;;;;;;;;;5107712;27;20424;-47
2021/07/01 15:52:56;;;;;;;6.57;5.10;;;;;;;;;;5060952;28;21190;-52
2021/07/01 15:55:34;;;;;;;6.53;5.28;;;;;;;;;;5053976;28;20428;-45
2021/07/01 15:58:12;;;;;;;8.15;5.32;;;;;;;;;;5055703;28;20483;-47
2021/07/01 16:00:58;;;;;;;7.82;5.20;;;;;;;;;;5066084;28;20427;-47
2021/07/01 16:03:39;;;;;;;7.38;5.88;;;;;;;;;;5104914;27;20421;-46
2021/07/01 16:06:18;;;;;;;7.43;5.40;;;;;;;;;;5067576;28;20423;-46
2021/07/01 16:08:56;;;;;;;6.20;5.38;;;;;;;;;;5086204;27;20422;-46
2021/07/01 16:11:35;;;;;;;10.25;6.00;;;;;;;;;;5068467;28;20419;-48